createdAt,value
2019-02-19T00:03:57.217Z,4.51
2019-02-19T00:09:01.594Z,4.79
2019-02-19T00:14:07.580Z,5.05
2019-02-19T00:19:11.977Z,4.96
2019-02-19T00:24:16.323Z,4.71
2019-02-19T00:29:20.735Z,4.81
2019-02-19T00:34:25.139Z,4.92
2019-02-19T00:39:29.543Z,5.00
2019-02-19T00:44:33.903Z,4.99
2019-02-19T00:49:38.271Z,5.15
2019-02-19T00:54:42.681Z,4.65
2019-02-19T00:59:47.075Z,4.64
2019-02-19T01:04:51.491Z,4.78
2019-02-19T01:09:55.869Z,4.70
2019-02-19T01:15:00.273Z,4.80
2019-02-19T01:20:07.072Z,4.29
2019-02-19T01:25:11.390Z,3.87
2019-02-19T01:30:15.777Z,4.29
2019-02-19T01:35:20.150Z,4.00
2019-02-19T01:40:24.512Z,4.17
2019-02-19T01:45:34.012Z,4.10
2019-02-19T01:50:35.108Z,4.39
2019-02-19T01:55:39.486Z,4.06
2019-02-19T02:00:43.842Z,4.31
2019-02-19T02:05:48.200Z,4.02
2019-02-19T02:10:52.545Z,3.96
2019-02-19T02:15:56.927Z,3.99
2019-02-19T02:21:01.284Z,3.94
2019-02-19T02:26:05.667Z,4.23
2019-02-19T02:31:10.041Z,3.90
2019-02-19T02:36:14.445Z,3.50
2019-02-19T02:41:18.821Z,3.98
2019-02-19T02:46:23.373Z,3.61
2019-02-19T02:51:27.759Z,4.03
2019-02-19T02:56:32.253Z,4.08
2019-02-19T03:01:36.657Z,3.55
2019-02-19T03:06:42.675Z,4.11
2019-02-19T03:11:47.026Z,3.65
2019-02-19T03:16:51.409Z,3.81
2019-02-19T03:21:55.779Z,3.29
2019-02-19T03:27:00.226Z,3.71
2019-02-19T03:32:04.619Z,3.40
2019-02-19T03:37:09.185Z,3.48
2019-02-19T03:42:13.610Z,3.36
2019-02-19T03:47:18.008Z,4.41
2019-02-19T03:52:22.384Z,4.03
2019-02-19T03:57:26.928Z,3.90
2019-02-19T04:02:31.319Z,3.71
2019-02-19T04:07:35.748Z,4.41
2019-02-19T04:12:40.149Z,4.45
2019-02-19T04:17:44.500Z,4.26
2019-02-19T04:22:48.906Z,4.20
2019-02-19T04:27:53.310Z,4.60
2019-02-19T04:32:57.646Z,4.19
2019-02-19T04:38:02.058Z,4.08
2019-02-19T04:43:06.444Z,4.30
2019-02-19T04:48:10.870Z,4.43
2019-02-19T04:53:15.271Z,4.22
2019-02-19T04:58:19.699Z,4.28
2019-02-19T05:03:24.057Z,4.28
2019-02-19T05:08:28.453Z,4.14
2019-02-19T05:13:32.824Z,3.95
2019-02-19T05:18:37.191Z,4.13
2019-02-19T05:23:41.543Z,3.74
2019-02-19T05:28:46.011Z,3.74
2019-02-19T05:33:50.478Z,4.33
2019-02-19T05:38:54.850Z,4.11
2019-02-19T05:43:59.196Z,3.81
2019-02-19T05:49:03.591Z,3.45
2019-02-19T05:54:07.933Z,3.88
2019-02-19T05:59:12.290Z,3.70
2019-02-19T06:04:16.710Z,3.52
2019-02-19T06:09:21.064Z,3.70
2019-02-19T06:14:25.415Z,3.41
2019-02-19T06:19:29.806Z,3.38
2019-02-19T06:24:34.166Z,3.52
2019-02-19T06:29:38.664Z,3.59
2019-02-19T06:34:43.066Z,3.63
2019-02-19T06:39:47.497Z,3.62
2019-02-19T06:44:51.972Z,3.65
2019-02-19T06:49:56.317Z,3.61
2019-02-19T06:55:00.673Z,3.68
2019-02-19T07:00:08.617Z,4.25
2019-02-19T07:05:14.645Z,4.19
2019-02-19T07:10:19.041Z,4.28
2019-02-19T07:15:23.444Z,4.71
2019-02-19T07:20:27.892Z,4.77
2019-02-19T07:25:32.252Z,4.79
2019-02-19T07:30:36.633Z,4.74
2019-02-19T07:35:41.118Z,4.96
2019-02-19T07:40:45.432Z,5.17
2019-02-19T07:45:49.849Z,5.21
2019-02-19T07:50:54.227Z,5.56
2019-02-19T07:55:58.630Z,5.33
2019-02-19T08:01:03.024Z,5.52
2019-02-19T08:06:07.410Z,5.51
2019-02-19T08:11:11.752Z,5.78
2019-02-19T08:16:16.143Z,5.86
2019-02-19T08:21:20.558Z,5.91
2019-02-19T08:26:24.985Z,6.10
2019-02-19T08:31:29.314Z,6.31
2019-02-19T08:36:33.746Z,6.47
2019-02-19T08:41:38.160Z,6.64
2019-02-19T08:46:42.536Z,6.67
2019-02-19T08:51:55.748Z,6.83
2019-02-19T08:56:52.999Z,6.99
2019-02-19T09:01:57.354Z,7.17
2019-02-19T09:07:01.706Z,7.46
2019-02-19T09:12:06.147Z,7.76
2019-02-19T09:17:10.522Z,8.09
2019-02-19T09:22:14.896Z,8.44
2019-02-19T09:27:19.317Z,8.79
2019-02-19T09:32:23.652Z,8.92
2019-02-19T09:37:28.074Z,9.40
2019-02-19T09:42:32.419Z,9.90
2019-02-19T09:47:36.795Z,10.05
2019-02-19T09:52:41.183Z,10.10
2019-02-19T09:57:45.526Z,10.39
2019-02-19T10:02:49.920Z,10.73
2019-02-19T10:07:55.871Z,11.08
2019-02-19T10:13:00.407Z,11.18
2019-02-19T10:18:10.215Z,11.29
2019-02-19T10:23:10.950Z,11.02
2019-02-19T10:28:15.362Z,11.53
2019-02-19T10:33:19.747Z,11.69
2019-02-19T10:38:24.114Z,11.65
2019-02-19T10:43:28.495Z,11.80
2019-02-19T10:48:32.919Z,11.70
2019-02-19T10:53:37.282Z,11.82
2019-02-19T10:58:41.756Z,11.82
2019-02-19T11:03:46.221Z,11.78
2019-02-19T11:08:50.607Z,11.75
2019-02-19T11:13:54.982Z,11.63
2019-02-19T11:18:59.330Z,11.69
2019-02-19T11:24:03.789Z,11.79
2019-02-19T11:29:08.180Z,11.79
2019-02-19T11:34:12.760Z,11.89
2019-02-19T11:39:17.258Z,11.84
2019-02-19T11:44:21.626Z,11.59
2019-02-19T11:49:26.048Z,11.47
2019-02-19T11:54:30.450Z,11.31
2019-02-19T11:59:34.803Z,11.13
2019-02-19T12:04:39.174Z,11.01
2019-02-19T12:09:44.411Z,10.96
2019-02-19T12:14:48.795Z,10.83
2019-02-19T12:19:53.166Z,10.72
2019-02-19T12:24:57.665Z,10.66
2019-02-19T12:30:02.193Z,10.60
2019-02-19T12:35:08.816Z,10.51
2019-02-19T12:40:14.686Z,10.45
2019-02-19T12:45:19.236Z,10.35
2019-02-19T12:50:23.619Z,10.25
2019-02-19T12:55:28.002Z,10.24
2019-02-19T13:00:32.407Z,10.13
2019-02-19T13:05:36.765Z,9.94
2019-02-19T13:10:43.880Z,9.87
2019-02-19T13:15:48.422Z,9.85
2019-02-19T13:20:52.806Z,9.75
2019-02-19T13:25:57.279Z,9.75
2019-02-19T13:31:01.701Z,9.75
2019-02-19T13:36:06.815Z,9.58
2019-02-19T13:41:11.162Z,9.61
2019-02-19T13:46:15.628Z,9.57
2019-02-19T13:51:20.010Z,9.51
2019-02-19T13:56:24.409Z,9.46
2019-02-19T14:01:28.852Z,9.46
2019-02-19T14:06:33.376Z,9.48
2019-02-19T14:11:37.827Z,9.40
2019-02-19T14:16:49.317Z,9.18
2019-02-19T14:21:58.181Z,9.27
2019-02-19T14:27:04.241Z,9.10
2019-02-19T14:32:10.377Z,8.77
2019-02-19T14:37:22.447Z,8.79
2019-02-19T14:42:47.568Z,8.73
2019-02-19T14:47:53.594Z,8.59
2019-02-19T14:53:14.486Z,8.45
2019-02-19T14:58:23.219Z,8.47
2019-02-19T15:03:38.535Z,8.51
2019-02-19T15:08:47.202Z,8.60
2019-02-19T15:13:56.385Z,8.81
2019-02-19T15:19:02.367Z,8.74
2019-02-19T15:24:18.948Z,8.77
2019-02-19T15:29:34.021Z,8.72
2019-02-19T15:34:56.932Z,8.78
2019-02-19T15:40:21.737Z,8.75
2019-02-19T15:45:27.820Z,8.58
2019-02-19T15:50:49.992Z,8.54
2019-02-19T15:55:58.473Z,8.41
2019-02-19T16:01:20.914Z,8.38
2019-02-19T16:06:42.420Z,8.35
2019-02-19T16:11:48.404Z,8.09
2019-02-19T16:16:54.469Z,8.08
2019-02-19T16:22:00.455Z,7.91
2019-02-19T16:27:06.510Z,7.71
2019-02-19T16:32:12.534Z,7.78
2019-02-19T16:37:18.533Z,7.55
2019-02-19T16:42:24.515Z,7.53
2019-02-19T16:47:30.759Z,7.58
2019-02-19T16:52:54.869Z,7.39
2019-02-19T16:58:13.913Z,7.50
2019-02-19T17:03:26.189Z,7.33
2019-02-19T17:08:41.368Z,7.19
2019-02-19T17:14:06.568Z,7.26
2019-02-19T17:19:12.805Z,7.10
2019-02-19T17:24:19.300Z,7.25
2019-02-19T17:29:25.446Z,7.24
2019-02-19T17:34:34.091Z,7.34
2019-02-19T17:39:45.900Z,7.30
2019-02-19T17:44:51.901Z,7.15
2019-02-19T17:49:57.918Z,7.15
2019-02-19T17:55:03.996Z,7.08
2019-02-19T18:00:15.166Z,7.13
2019-02-19T18:05:21.406Z,7.23
2019-02-19T18:10:27.393Z,7.02
2019-02-19T18:15:42.062Z,7.31
2019-02-19T18:20:47.866Z,7.05
2019-02-19T18:25:52.565Z,6.83
2019-02-19T18:30:57.175Z,6.91
2019-02-19T18:36:01.701Z,6.85
2019-02-19T18:41:06.205Z,7.01
2019-02-19T18:46:10.608Z,6.97
2019-02-19T18:51:15.118Z,7.07
2019-02-19T18:56:19.485Z,7.07
2019-02-19T19:01:23.865Z,7.24
2019-02-19T19:06:28.309Z,7.46
2019-02-19T19:11:32.844Z,7.46
2019-02-19T19:16:37.180Z,7.52
2019-02-19T19:21:41.586Z,7.48
2019-02-19T19:26:45.944Z,7.36
2019-02-19T19:31:50.363Z,7.57
2019-02-19T19:36:54.710Z,7.60
2019-02-19T19:41:59.077Z,7.55
2019-02-19T19:47:03.485Z,7.48
2019-02-19T19:52:08.346Z,7.49
2019-02-19T19:57:17.623Z,7.75
2019-02-19T20:02:32.456Z,7.73
2019-02-19T20:07:37.533Z,7.64
2019-02-19T20:12:41.967Z,7.64
2019-02-19T20:17:47.376Z,7.67
2019-02-19T20:22:51.796Z,7.61
2019-02-19T20:27:57.979Z,7.60
2019-02-19T20:33:02.400Z,7.66
2019-02-19T20:38:06.833Z,7.68
2019-02-19T20:43:11.284Z,7.79
2019-02-19T20:48:17.339Z,7.75
2019-02-19T20:53:21.811Z,7.80
2019-02-19T20:58:26.173Z,7.77
2019-02-19T21:03:30.732Z,7.88
2019-02-19T21:08:35.194Z,7.82
2019-02-19T21:19:10.892Z,7.89
2019-02-19T21:24:15.262Z,7.94
2019-02-19T21:29:19.842Z,7.93
2019-02-19T21:34:24.178Z,7.88
2019-02-19T21:39:28.687Z,8.00
2019-02-19T21:44:33.159Z,7.79
2019-02-19T21:49:37.542Z,7.79
2019-02-19T21:54:41.906Z,7.82
2019-02-19T21:59:46.453Z,7.99
2019-02-19T22:04:51.064Z,8.06
2019-02-19T22:09:55.537Z,7.98
2019-02-19T22:14:59.887Z,7.87
2019-02-19T22:20:11.713Z,7.76
2019-02-19T22:25:16.239Z,7.73
2019-02-19T22:30:20.623Z,7.84
2019-02-19T22:35:24.997Z,7.78
2019-02-19T22:40:29.406Z,7.79
2019-02-19T22:45:33.862Z,7.76
2019-02-19T22:50:38.320Z,7.69
2019-02-19T22:55:51.792Z,7.60
2019-02-19T23:00:59.580Z,7.69
2019-02-19T23:06:05.552Z,7.43
2019-02-19T23:11:10.053Z,7.51
2019-02-19T23:16:14.401Z,7.25
2019-02-19T23:21:18.785Z,7.13
2019-02-19T23:26:23.146Z,6.80
2019-02-19T23:31:27.492Z,6.85
2019-02-19T23:36:39.413Z,7.03
2019-02-19T23:41:43.830Z,7.12
2019-02-19T23:46:48.235Z,6.96
2019-02-19T23:51:52.577Z,6.81
2019-02-19T23:56:56.982Z,6.94
